Time;durP1;ratioP1;P1;durP2;ratioP2;P2;SDS_P1;SDS_P2;PMS_P1;PMS_P2;Temp;Humidity;BMP_temperature;BMP_pressure;BME280_temperature;BME280_humidity;BME280_pressure;Samples;Min_cycle;Max_cycle;Signal;HPM_P1;HPM_P2
2023/05/01 00:02:43;;;;;;;12.38;4.88;;;;;;;7.82;100.00;101488.78;10525719;28;20055;-75
2023/05/01 00:07:43;;;;;;;11.38;4.03;;;;;;;7.81;100.00;101480.88;10526287;28;20036;-76
2023/05/01 00:12:44;;;;;;;8.27;3.13;;;;;;;7.77;100.00;101474.53;10527162;28;20115;-76
2023/05/01 00:17:44;;;;;;;8.88;3.78;;;;;;;7.74;100.00;101467.41;10507550;28;20066;-76
2023/05/01 00:22:45;;;;;;;12.35;4.40;;;;;;;7.66;100.00;101462.47;10524517;28;20036;-76
2023/05/01 00:27:45;;;;;;;6.55;3.53;;;;;;;7.54;100.00;101454.72;10526309;28;20386;-76
2023/05/01 00:32:46;;;;;;;6.13;3.67;;;;;;;7.43;100.00;101449.66;10525897;28;20092;-76
2023/05/01 00:37:46;;;;;;;7.72;3.50;;;;;;;7.41;100.00;101446.06;10522637;28;20063;-76
2023/05/01 00:42:47;;;;;;;10.25;4.05;;;;;;;7.42;100.00;101431.31;10489778;28;20132;-76
2023/05/01 00:47:47;;;;;;;6.78;3.67;;;;;;;7.39;100.00;101431.09;10507748;28;20561;-76
2023/05/01 00:52:48;;;;;;;6.47;3.28;;;;;;;7.37;100.00;101417.06;10507771;28;20455;-76
2023/05/01 00:57:48;;;;;;;9.60;3.75;;;;;;;7.31;100.00;101417.56;10524697;28;20182;-77
2023/05/01 01:02:49;;;;;;;8.70;4.15;;;;;;;7.26;100.00;101412.00;10508215;28;20059;-76
2023/05/01 01:08:15;;;;;;;7.45;3.45;;;;;;;7.13;100.00;101393.72;10513310;28;20037;-76
2023/05/01 01:13:31;;;;;;;11.60;4.60;;;;;;;7.09;100.00;101386.50;10532180;28;20032;-76
2023/05/01 01:18:46;;;;;;;7.63;4.47;;;;;;;7.03;100.00;101387.88;10513567;28;20067;-76
2023/05/01 01:23:59;;;;;;;10.07;4.22;;;;;;;7.08;100.00;101383.00;10500823;28;20541;-76
2023/05/01 01:29:05;;;;;;;10.40;4.60;;;;;;;6.99;100.00;101385.84;10532629;28;20072;-76
2023/05/01 01:34:18;;;;;;;11.63;4.60;;;;;;;6.93;100.00;101376.72;10530283;28;20051;-76
2023/05/01 01:39:34;;;;;;;18.45;4.43;;;;;;;6.85;100.00;101369.28;10514406;28;20070;-76
2023/05/01 01:44:40;;;;;;;9.20;4.18;;;;;;;6.81;100.00;101358.53;10512973;28;20067;-76
2023/05/01 01:49:46;;;;;;;7.47;3.75;;;;;;;6.83;100.00;101355.25;10497863;28;20036;-77
2023/05/01 01:55:05;;;;;;;10.60;4.53;;;;;;;6.82;100.00;101335.25;10514162;28;20047;-76
2023/05/01 02:00:09;;;;;;;7.05;4.35;;;;;;;6.71;100.00;101337.06;10512876;28;20036;-76
2023/05/01 02:05:14;;;;;;;10.48;3.67;;;;;;;6.66;100.00;101329.75;10529591;28;20109;-76
2023/05/01 02:10:15;;;;;;;7.65;3.72;;;;;;;6.73;100.00;101325.06;10519614;28;20040;-76
2023/05/01 02:15:17;;;;;;;8.45;3.95;;;;;;;6.75;100.00;101315.69;10528499;28;20490;-76
2023/05/01 02:20:17;;;;;;;8.30;4.35;;;;;;;6.70;100.00;101317.06;10513163;28;20039;-76
2023/05/01 02:25:18;;;;;;;8.18;4.53;;;;;;;6.65;100.00;101307.13;10529284;28;20448;-75
2023/05/01 02:30:19;;;;;;;8.45;4.05;;;;;;;6.45;100.00;101311.81;10527020;28;20487;-76
2023/05/01 02:35:20;;;;;;;6.60;4.38;;;;;;;6.28;100.00;101313.19;10528218;28;20043;-76
2023/05/01 02:40:21;;;;;;;10.33;4.07;;;;;;;6.16;100.00;101324.50;10529024;28;20036;-76
2023/05/01 02:45:22;;;;;;;7.15;3.30;;;;;;;6.05;100.00;101315.03;10511035;28;20042;-77
2023/05/01 02:50:22;;;;;;;6.95;3.92;;;;;;;6.00;100.00;101303.38;10526436;28;20033;-76
2023/05/01 02:55:23;;;;;;;7.85;4.03;;;;;;;5.95;100.00;101309.91;10528613;28;20040;-76
2023/05/01 03:00:23;;;;;;;9.93;4.00;;;;;;;5.95;100.00;101300.44;10524701;28;20528;-77
2023/05/01 03:05:24;;;;;;;7.72;4.57;;;;;;;5.82;100.00;101295.13;10529320;28;20475;-77
2023/05/01 03:10:24;;;;;;;11.43;4.50;;;;;;;5.74;100.00;101291.97;10528112;28;20127;-77
2023/05/01 03:15:24;;;;;;;6.72;3.72;;;;;;;5.71;100.00;101291.72;10528943;28;20080;-77
2023/05/01 03:20:25;;;;;;;6.07;3.80;;;;;;;5.67;100.00;101279.31;10525642;28;20132;-77
2023/05/01 03:25:25;;;;;;;11.32;4.60;;;;;;;5.71;100.00;101282.25;10509448;28;20044;-77
2023/05/01 03:30:26;;;;;;;9.57;6.30;;;;;;;5.62;100.00;101275.47;10526365;28;20037;-77
2023/05/01 03:35:27;;;;;;;7.20;3.80;;;;;;;5.54;100.00;101268.00;10525544;28;20523;-77
2023/05/01 03:40:27;;;;;;;11.00;5.72;;;;;;;5.47;100.00;101267.47;10527085;28;20119;-78
2023/05/01 03:45:28;;;;;;;10.10;5.03;;;;;;;5.47;100.00;101265.75;10522475;28;20035;-76
2023/05/01 03:50:28;;;;;;;6.78;4.13;;;;;;;5.43;100.00;101266.31;10507692;28;20152;-76
2023/05/01 03:55:28;;;;;;;9.48;5.40;;;;;;;5.35;100.00;101264.84;10508815;28;20472;-77
2023/05/01 04:00:29;;;;;;;11.45;5.75;;;;;;;5.32;100.00;101267.19;10526186;28;20054;-76
2023/05/01 04:05:30;;;;;;;8.45;5.40;;;;;;;5.23;100.00;101257.03;10525683;28;20078;-76
2023/05/01 04:10:31;;;;;;;8.82;5.00;;;;;;;5.15;100.00;101256.44;10507621;28;20530;-76
2023/05/01 04:15:31;;;;;;;11.38;4.82;;;;;;;5.17;100.00;101251.38;10507066;28;20126;-76
2023/05/01 04:20:32;;;;;;;11.80;5.75;;;;;;;5.18;100.00;101258.38;10521855;28;20432;-74
2023/05/01 04:25:33;;;;;;;16.00;7.43;;;;;;;5.19;100.00;101255.88;10499687;28;20055;-77
2023/05/01 04:30:34;;;;;;;13.35;5.20;;;;;;;5.25;100.00;101248.56;10503677;28;20586;-77
2023/05/01 04:35:35;;;;;;;9.95;5.40;;;;;;;5.36;100.00;101251.97;10513727;28;20139;-76
2023/05/01 04:40:36;;;;;;;12.13;9.13;;;;;;;5.52;100.00;101243.63;10515225;28;20051;-76
2023/05/01 04:45:39;;;;;;;10.38;6.47;;;;;;;5.71;100.00;101244.97;10521662;28;20135;-77
2023/05/01 04:50:40;;;;;;;12.48;5.22;;;;;;;5.93;100.00;101239.69;10500025;28;20495;-76
2023/05/01 04:55:40;;;;;;;9.32;5.38;;;;;;;6.15;100.00;101243.84;10506777;28;20111;-75
2023/05/01 05:00:41;;;;;;;9.05;5.05;;;;;;;6.32;100.00;101245.94;10503396;28;20040;-74
2023/05/01 05:05:41;;;;;;;8.63;5.60;;;;;;;6.51;100.00;101242.06;10522842;28;20491;-75
2023/05/01 05:10:42;;;;;;;8.35;6.00;;;;;;;6.68;100.00;101240.59;10521895;28;20072;-77
2023/05/01 05:15:42;;;;;;;9.30;4.97;;;;;;;6.90;100.00;101247.28;10525487;28;20522;-77
2023/05/01 05:20:43;;;;;;;10.20;5.47;;;;;;;7.12;100.00;101249.69;10504961;28;20070;-77
2023/05/01 05:25:43;;;;;;;15.23;5.50;;;;;;;7.31;100.00;101244.00;10522665;28;20041;-75
2023/05/01 05:30:45;;;;;;;11.07;4.10;;;;;;;7.56;100.00;101234.31;10505755;28;20067;-76
2023/05/01 05:35:46;;;;;;;9.73;5.23;;;;;;;7.85;100.00;101238.78;10505268;28;20036;-76
2023/05/01 05:40:46;;;;;;;9.40;4.78;;;;;;;8.12;100.00;101232.66;10520945;28;20115;-77
2023/05/01 05:45:47;;;;;;;6.75;4.00;;;;;;;8.45;100.00;101238.19;10521532;28;20152;-77
2023/05/01 05:50:49;;;;;;;8.93;4.70;;;;;;;8.78;100.00;101230.66;10491802;28;20075;-78
2023/05/01 05:55:50;;;;;;;11.35;4.97;;;;;;;9.06;100.00;101228.00;10511522;28;20081;-77
2023/05/01 06:00:52;;;;;;;8.30;4.28;;;;;;;9.44;100.00;101225.84;10523275;28;20078;-77
2023/05/01 06:05:53;;;;;;;9.70;5.28;;;;;;;9.79;100.00;101224.34;10516353;28;20044;-75
2023/05/01 06:10:53;;;;;;;8.75;3.53;;;;;;;9.99;100.00;101233.31;10530190;28;20040;-76
2023/05/01 06:15:53;;;;;;;7.32;4.75;;;;;;;10.19;100.00;101235.25;10529077;28;20127;-77
2023/05/01 06:20:54;;;;;;;8.40;4.45;;;;;;;10.49;100.00;101230.78;10495167;28;20074;-78
2023/05/01 06:25:54;;;;;;;7.72;3.92;;;;;;;10.93;100.00;101227.81;10527338;28;20036;-77
2023/05/01 06:30:55;;;;;;;6.00;3.50;;;;;;;11.36;100.00;101222.16;10521494;28;20071;-77
2023/05/01 06:35:58;;;;;;;7.05;3.80;;;;;;;11.81;100.00;101223.44;10526737;28;20605;-77
2023/05/01 06:40:59;;;;;;;11.93;5.03;;;;;;;11.99;100.00;101224.31;10527035;28;20043;-78
2023/05/01 06:46:00;;;;;;;8.45;3.88;;;;;;;11.87;100.00;101224.66;10526122;28;20047;-78
2023/05/01 06:51:00;;;;;;;7.88;4.63;;;;;;;11.92;100.00;101219.63;10510155;28;20484;-78
2023/05/01 06:56:01;;;;;;;10.55;4.80;;;;;;;12.10;100.00;101222.25;10509102;28;20052;-78
2023/05/01 07:01:01;;;;;;;7.68;4.55;;;;;;;12.26;100.00;101222.97;10502071;28;20046;-78
2023/05/01 07:06:02;;;;;;;7.50;4.50;;;;;;;12.51;100.00;101227.63;10508427;28;21218;-77
2023/05/01 07:11:02;;;;;;;8.82;4.10;;;;;;;12.85;100.00;101228.25;10523027;28;20044;-76
2023/05/01 07:16:07;;;;;;;6.93;4.63;;;;;;;13.13;100.00;101225.06;10525637;28;20111;-79
2023/05/01 07:21:10;;;;;;;8.88;4.63;;;;;;;13.30;100.00;101231.06;10493449;28;20051;-76
2023/05/01 07:26:11;;;;;;;6.82;4.18;;;;;;;13.45;100.00;101224.69;10521887;28;20036;-76
2023/05/01 07:31:11;;;;;;;10.57;4.78;;;;;;;13.67;100.00;101223.81;10507721;28;20036;-77
2023/05/01 07:36:12;;;;;;;5.55;3.83;;;;;;;14.10;100.00;101229.91;10526968;28;20032;-76
2023/05/01 07:41:12;;;;;;;7.93;4.88;;;;;;;14.46;100.00;101220.72;10525277;28;20128;-76
2023/05/01 07:46:13;;;;;;;6.82;3.92;;;;;;;14.62;100.00;101219.56;10526912;28;20119;-76
2023/05/01 07:51:13;;;;;;;9.32;4.10;;;;;;;14.75;100.00;101219.19;10525402;28;20056;-76
2023/05/01 07:56:14;;;;;;;7.22;4.57;;;;;;;15.12;100.00;101215.22;10524256;28;20444;-77
2023/05/01 08:01:14;;;;;;;8.20;4.40;;;;;;;15.41;100.00;101215.31;10506546;28;20063;-76
2023/05/01 08:06:15;;;;;;;8.68;4.28;;;;;;;15.38;100.00;101220.50;10508342;28;20172;-74
2023/05/01 08:11:15;;;;;;;7.93;4.47;;;;;;;15.46;100.00;101217.22;10525443;28;20113;-77
2023/05/01 08:16:16;;;;;;;8.70;4.90;;;;;;;15.42;100.00;101221.47;10523383;28;20036;-75
2023/05/01 08:21:16;;;;;;;5.63;3.72;;;;;;;15.83;100.00;101205.22;10522930;28;20132;-76
2023/05/01 08:26:17;;;;;;;6.82;5.03;;;;;;;16.18;100.00;101208.06;10504597;28;20056;-76
2023/05/01 08:31:18;;;;;;;7.88;4.25;;;;;;;16.43;100.00;101204.41;10524934;28;20036;-76
2023/05/01 08:36:18;;;;;;;9.63;3.72;;;;;;;16.90;100.00;101207.44;10524895;28;20112;-76
2023/05/01 08:41:22;;;;;;;7.82;4.43;;;;;;;16.93;100.00;101205.75;10524541;28;20044;-78
2023/05/01 08:46:33;;;;;;;7.45;4.18;;;;;;;16.73;100.00;101203.47;10486856;28;20040;-77
2023/05/01 08:51:33;;;;;;;11.45;6.88;;;;;;;16.66;100.00;101205.91;10503820;28;20396;-75
2023/05/01 08:56:37;;;;;;;7.35;4.70;;;;;;;16.77;100.00;101206.19;10506337;28;20063;-76
2023/05/01 09:01:37;;;;;;;8.23;5.07;;;;;;;16.74;100.00;101213.19;10465868;28;20143;-75
2023/05/01 09:06:38;;;;;;;9.63;5.13;;;;;;;16.82;100.00;101210.78;10482393;28;20060;-76
2023/05/01 09:11:39;;;;;;;8.55;5.63;;;;;;;17.22;100.00;101213.59;10464677;28;20175;-76
2023/05/01 09:16:39;;;;;;;10.02;6.82;;;;;;;17.99;100.00;101218.97;10492714;28;20123;-77
2023/05/01 09:21:40;;;;;;;15.23;5.80;;;;;;;18.32;100.00;101215.31;10499860;28;20123;-76
2023/05/01 09:26:41;;;;;;;9.30;6.90;;;;;;;18.18;99.65;101215.91;10525709;28;20388;-74
2023/05/01 09:31:42;;;;;;;9.80;6.77;;;;;;;18.13;100.00;101212.25;10513719;28;20040;-76
2023/05/01 09:36:42;;;;;;;10.65;5.90;;;;;;;17.93;100.00;101210.88;10533078;28;20064;-76
2023/05/01 09:41:51;;;;;;;10.18;5.85;;;;;;;17.45;100.00;101203.63;10513970;28;20127;-76
2023/05/01 09:46:53;;;;;;;14.70;6.05;;;;;;;17.30;100.00;101206.75;10532492;28;20047;-77
2023/05/01 09:51:53;;;;;;;8.75;6.28;;;;;;;17.05;100.00;101206.97;10512366;28;20028;-76
2023/05/01 09:56:54;;;;;;;8.98;6.18;;;;;;;16.74;100.00;101207.03;10512335;28;20123;-76
2023/05/01 10:01:55;;;;;;;11.13;6.80;;;;;;;16.52;100.00;101218.72;10528754;28;20032;-76
2023/05/01 10:06:55;;;;;;;11.77;6.90;;;;;;;16.37;100.00;101216.53;10497185;28;20495;-76
2023/05/01 10:11:57;;;;;;;10.55;5.70;;;;;;;16.22;100.00;101215.25;10506926;28;20902;-77
2023/05/01 10:16:58;;;;;;;9.43;7.10;;;;;;;16.23;100.00;101229.31;10531511;28;20058;-76
2023/05/01 10:21:59;;;;;;;9.95;8.05;;;;;;;16.18;100.00;101220.38;10499945;28;20115;-75
2023/05/01 10:26:59;;;;;;;17.10;7.07;;;;;;;16.09;100.00;101223.63;10489209;28;20115;-77
2023/05/01 10:32:00;;;;;;;10.27;6.75;;;;;;;16.32;100.00;101220.78;10470233;28;20060;-77
2023/05/01 10:37:03;;;;;;;11.23;7.50;;;;;;;16.89;100.00;101209.19;10469626;28;20037;-76
2023/05/01 10:42:13;;;;;;;7.68;6.70;;;;;;;17.59;100.00;101214.53;10413900;28;20510;-77
2023/05/01 10:47:33;;;;;;;12.88;8.27;;;;;;;18.90;100.00;101202.34;10470001;28;20472;-77
2023/05/01 10:53:11;;;;;;;16.42;7.47;;;;;;;20.19;100.00;101204.41;10516814;28;20040;-76
2023/05/01 10:58:12;;;;;;;11.35;7.88;;;;;;;21.62;75.73;101202.34;10523011;28;20041;-77
2023/05/01 11:03:21;;;;;;;10.07;6.97;;;;;;;22.92;70.01;101194.09;10492209;28;20124;-77
2023/05/01 11:08:31;;;;;;;10.45;6.78;;;;;;;23.30;68.34;101196.84;10485473;28;20040;-77
2023/05/01 11:13:54;;;;;;;14.85;8.63;;;;;;;22.95;67.08;101192.34;10486731;28;20031;-77
2023/05/01 11:18:55;;;;;;;16.60;7.30;;;;;;;21.85;68.46;101197.19;10509168;28;20097;-77
2023/05/01 11:23:55;;;;;;;12.03;7.20;;;;;;;20.94;72.97;101184.03;10528962;28;20451;-77
2023/05/01 11:28:58;;;;;;;11.17;7.03;;;;;;;22.03;68.50;101179.53;10527123;28;20036;-77
2023/05/01 11:33:59;;;;;;;11.75;8.38;;;;;;;21.36;73.38;101176.44;10509966;28;20029;-77
2023/05/01 11:38:59;;;;;;;12.70;8.33;;;;;;;22.50;72.64;101178.88;10527848;28;20024;-77
2023/05/01 11:44:00;;;;;;;13.63;7.13;;;;;;;24.43;61.78;101168.97;10526166;28;20107;-77
2023/05/01 11:49:00;;;;;;;9.27;6.83;;;;;;;25.41;55.51;101154.88;10523346;28;20479;-78
2023/05/01 11:54:02;;;;;;;9.90;7.60;;;;;;;26.20;55.92;101158.53;10507055;28;20122;-77
2023/05/01 11:59:16;;;;;;;11.18;6.80;;;;;;;25.87;52.14;101145.53;10525540;28;20496;-78
2023/05/01 12:04:26;;;;;;;11.02;7.90;;;;;;;26.22;49.85;101141.53;10492589;28;20045;-78
2023/05/01 12:09:27;;;;;;;11.98;7.32;;;;;;;25.10;47.54;101140.91;10466544;28;20483;-78
2023/05/01 12:14:27;;;;;;;10.20;6.63;;;;;;;22.55;54.92;101141.56;10486089;28;20032;-77
2023/05/01 12:19:28;;;;;;;8.47;6.50;;;;;;;20.23;59.02;101157.53;10491235;28;20119;-79
2023/05/01 12:24:28;;;;;;;10.70;6.80;;;;;;;18.57;70.22;101153.13;10524893;28;20065;-78
2023/05/01 12:29:40;;;;;;;13.68;8.35;;;;;;;17.15;100.00;101166.69;10501782;28;20115;-77
2023/05/01 12:34:40;;;;;;;12.88;8.23;;;;;;;16.16;100.00;101170.16;10502515;28;20048;-77
2023/05/01 12:39:43;;;;;;;15.55;9.48;;;;;;;15.77;100.00;101173.34;10515541;28;20067;-77
2023/05/01 12:44:43;;;;;;;11.55;9.38;;;;;;;16.04;100.00;101175.97;10523446;28;20036;-77
2023/05/01 12:49:44;;;;;;;11.60;8.50;;;;;;;16.79;100.00;101175.41;10507123;28;20024;-77
2023/05/01 12:54:44;;;;;;;17.25;10.63;;;;;;;18.07;100.00;101179.47;10523439;28;20052;-78
2023/05/01 12:59:45;;;;;;;13.52;9.57;;;;;;;19.08;100.00;101177.94;10507481;28;20086;-77
2023/05/01 13:04:47;;;;;;;12.02;9.00;;;;;;;19.93;100.00;101172.19;10511303;28;20455;-77
2023/05/01 13:09:51;;;;;;;18.20;10.40;;;;;;;22.00;90.25;101173.31;10530547;28;20036;-77
2023/05/01 13:14:51;;;;;;;14.20;9.38;;;;;;;22.23;78.41;101179.66;10531164;28;20063;-77
2023/05/01 13:19:57;;;;;;;14.07;10.03;;;;;;;21.18;81.63;101183.38;10516040;28;20047;-78
2023/05/01 13:24:57;;;;;;;13.27;9.05;;;;;;;23.08;82.36;101179.88;10531326;28;20043;-78
2023/05/01 13:29:58;;;;;;;15.63;8.70;;;;;;;23.92;64.24;101178.94;10513858;28;20123;-78
2023/05/01 13:34:59;;;;;;;15.43;8.83;;;;;;;24.09;59.93;101176.22;10531723;28;20037;-78
2023/05/01 13:40:00;;;;;;;;;;;;;;;24.75;58.41;101169.69;10531700;28;20445;-78
2023/05/01 13:45:04;;;;;;;11.68;8.60;;;;;;;25.54;53.40;101177.13;10530732;28;19973;-78
2023/05/01 13:50:09;;;;;;;13.45;7.72;;;;;;;23.36;52.46;101181.72;10528679;28;20093;-79
2023/05/01 13:55:10;;;;;;;16.00;8.68;;;;;;;20.83;60.99;101190.13;10533092;28;20067;-77
2023/05/01 14:00:16;;;;;;;13.48;8.25;;;;;;;18.99;72.54;101188.38;10530427;28;20101;-78
2023/05/01 14:05:18;;;;;;;16.83;7.78;;;;;;;18.17;79.32;101197.34;10530599;28;20043;-77
2023/05/01 14:10:18;;;;;;;13.60;8.82;;;;;;;17.33;100.00;101192.72;10530630;28;20032;-78
2023/05/01 14:15:19;;;;;;;12.88;8.05;;;;;;;17.13;97.89;101185.19;10510035;28;20036;-77
2023/05/01 14:20:20;;;;;;;12.77;7.97;;;;;;;16.88;100.00;101189.78;10502170;28;20131;-77
2023/05/01 14:25:25;;;;;;;13.90;6.60;;;;;;;17.21;99.59;101184.50;10515467;28;20039;-77
2023/05/01 14:30:38;;;;;;;10.98;7.00;;;;;;;19.57;87.74;101184.03;10516251;28;20036;-77
2023/05/01 14:35:49;;;;;;;10.50;5.80;;;;;;;21.03;69.57;101169.94;10515656;28;20059;-77
2023/05/01 14:40:50;;;;;;;11.03;6.83;;;;;;;20.68;64.34;101177.56;10506313;28;20044;-77
2023/05/01 14:45:51;;;;;;;13.10;6.80;;;;;;;19.80;67.25;101184.38;10519069;28;20040;-77
2023/05/01 14:50:53;;;;;;;9.23;6.00;;;;;;;19.98;67.77;101183.78;10495825;28;20119;-78
2023/05/01 14:55:53;;;;;;;;;;;;;;;20.02;67.28;101195.31;10528766;28;20047;-77
2023/05/01 15:00:54;;;;;;;7.45;5.53;;;;;;;20.22;69.69;101212.44;10526277;28;20279;-79
2023/05/01 15:05:55;;;;;;;12.55;6.05;;;;;;;19.40;66.66;101218.25;10529481;28;20323;-77
2023/05/01 15:10:56;;;;;;;9.07;5.47;;;;;;;19.53;67.78;101225.53;10527083;28;20540;-77
2023/05/01 15:15:56;;;;;;;13.88;7.45;;;;;;;18.33;77.62;101235.63;10510141;28;20059;-77
2023/05/01 15:20:57;;;;;;;12.88;6.82;;;;;;;18.19;85.22;101241.53;10529222;28;20127;-78
2023/05/01 15:25:58;;;;;;;7.80;5.68;;;;;;;18.18;85.24;101245.03;10503369;28;20079;-77
2023/05/01 15:30:58;;;;;;;6.97;4.15;;;;;;;16.93;89.60;101248.06;10524358;28;20058;-77
2023/05/01 15:36:00;;;;;;;;;;;;;;;16.17;95.81;101261.72;10492499;28;20036;-75
2023/05/01 15:41:00;;;;;;;7.82;3.67;;;;;;;15.81;100.00;101251.78;10473481;28;19994;-75
2023/05/01 15:46:01;;;;;;;5.70;3.50;;;;;;;15.69;100.00;101258.44;10448097;28;20115;-77
2023/05/01 15:51:03;;;;;;;11.88;3.63;;;;;;;15.54;100.00;101260.56;10498661;28;20119;-78
2023/05/01 15:56:03;;;;;;;4.10;3.15;;;;;;;15.58;100.00;101262.47;10509968;28;20119;-77
2023/05/01 16:01:04;;;;;;;6.45;3.85;;;;;;;15.88;100.00;101274.91;10499525;28;20391;-79
2023/05/01 16:06:05;;;;;;;6.30;3.92;;;;;;;16.12;95.44;101276.53;10510589;28;20491;-79
2023/05/01 16:11:05;;;;;;;11.50;4.80;;;;;;;15.97;100.00;101285.75;10518787;28;20036;-78
2023/05/01 16:16:10;;;;;;;8.38;4.20;;;;;;;15.96;100.00;101278.69;10523760;28;20059;-79
2023/05/01 16:21:11;;;;;;;5.65;4.05;;;;;;;16.38;97.75;101284.38;10517087;28;20032;-79
2023/05/01 16:26:12;;;;;;;7.32;4.75;;;;;;;16.70;100.00;101287.06;10484869;28;20037;-78
2023/05/01 16:31:12;;;;;;;8.10;4.75;;;;;;;16.74;95.25;101289.84;10519347;28;20479;-78
2023/05/01 16:36:14;;;;;;;6.40;4.95;;;;;;;16.44;100.00;101290.72;10518073;28;20059;-79
2023/05/01 16:41:15;;;;;;;;;;;;;;;16.14;89.13;101295.97;10507405;28;20043;-79
2023/05/01 16:46:16;;;;;;;7.95;3.40;;;;;;;15.95;90.11;101299.75;10518527;28;19924;-79
2023/05/01 16:51:17;;;;;;;9.68;4.03;;;;;;;15.85;91.59;101306.44;10518250;28;20728;-80
2023/05/01 16:56:18;;;;;;;9.63;4.65;;;;;;;15.68;100.00;101316.41;10515295;28;20172;-79
2023/05/01 17:01:18;;;;;;;9.48;4.38;;;;;;;15.33;98.42;101319.66;10503749;28;20036;-78
2023/05/01 17:06:19;;;;;;;5.47;4.50;;;;;;;15.15;100.00;101322.50;10506143;28;20123;-79
2023/05/01 17:11:20;;;;;;;8.90;4.85;;;;;;;15.25;100.00;101324.63;10517612;28;20132;-78
2023/05/01 17:16:20;;;;;;;18.67;5.38;;;;;;;15.24;100.00;101332.50;10520024;28;20036;-79
2023/05/01 17:21:23;;;;;;;7.60;4.60;;;;;;;15.21;100.00;101338.53;10500416;28;20551;-79
2023/05/01 17:26:23;;;;;;;9.48;6.32;;;;;;;15.23;100.00;101341.25;10510118;28;20098;-79
2023/05/01 17:31:24;;;;;;;9.27;4.47;;;;;;;15.01;100.00;101339.56;10520633;28;20119;-79
2023/05/01 17:36:25;;;;;;;7.65;4.75;;;;;;;14.45;100.00;101345.31;10523054;28;20166;-80
2023/05/01 17:41:26;;;;;;;7.53;4.73;;;;;;;13.93;100.00;101350.28;10521695;28;20044;-79
2023/05/01 17:46:26;;;;;;;6.80;4.47;;;;;;;13.53;100.00;101357.38;10520289;28;20496;-79
2023/05/01 17:51:27;;;;;;;7.10;3.78;;;;;;;13.27;100.00;101366.69;10525488;28;20061;-79
2023/05/01 17:56:27;;;;;;;9.10;3.08;;;;;;;13.04;100.00;101364.84;10520733;28;20143;-79
2023/05/01 18:01:29;;;;;;;4.22;2.92;;;;;;;12.92;100.00;101369.53;10529264;28;20119;-79
2023/05/01 18:06:30;;;;;;;4.47;3.20;;;;;;;12.83;100.00;101375.25;10528550;28;20055;-78
2023/05/01 18:11:32;;;;;;;8.23;2.92;;;;;;;12.97;100.00;101389.03;10513818;28;20082;-79
2023/05/01 18:16:33;;;;;;;16.58;6.22;;;;;;;13.02;100.00;101389.25;10497782;28;20142;-79
2023/05/01 18:21:33;;;;;;;8.55;6.10;;;;;;;12.89;100.00;101401.81;10507148;28;20307;-78
2023/05/01 18:26:35;;;;;;;10.43;7.53;;;;;;;12.76;100.00;101405.59;10524598;28;20075;-78
2023/05/01 18:31:36;;;;;;;13.55;9.27;;;;;;;12.57;100.00;101403.81;10506496;28;20036;-78
2023/05/01 18:36:37;;;;;;;16.42;11.07;;;;;;;12.41;100.00;101414.41;10511276;28;20097;-78
2023/05/01 18:41:37;;;;;;;16.63;12.50;;;;;;;12.29;100.00;101423.47;10524260;28;20063;-78
2023/05/01 18:46:38;;;;;;;16.15;11.55;;;;;;;12.13;100.00;101427.06;10517865;28;20475;-77
2023/05/01 18:51:39;;;;;;;18.10;13.00;;;;;;;12.08;100.00;101435.50;10523584;28;20121;-77
2023/05/01 18:56:39;;;;;;;24.63;16.55;;;;;;;11.99;100.00;101436.81;10516433;28;20051;-77
2023/05/01 19:01:40;;;;;;;19.95;13.02;;;;;;;11.90;100.00;101446.84;10524002;28;20052;-77
2023/05/01 19:06:40;;;;;;;18.10;12.73;;;;;;;11.70;100.00;101446.69;10523051;28;20196;-78
2023/05/01 19:11:40;;;;;;;15.55;11.27;;;;;;;11.47;100.00;101448.13;10506850;28;20127;-77
2023/05/01 19:16:41;;;;;;;17.63;13.82;;;;;;;11.34;100.00;101461.38;10523723;28;20068;-77
2023/05/01 19:21:42;;;;;;;20.60;12.70;;;;;;;11.20;100.00;101466.78;10523349;28;20439;-77
2023/05/01 19:26:42;;;;;;;25.63;15.43;;;;;;;11.02;100.00;101471.88;10525258;28;20046;-77
2023/05/01 19:31:42;;;;;;;20.05;14.55;;;;;;;10.81;100.00;101476.84;10526463;28;20047;-77
2023/05/01 19:36:43;;;;;;;21.00;16.00;;;;;;;10.52;100.00;101482.22;10508629;28;20075;-78
2023/05/01 19:41:43;;;;;;;21.25;16.92;;;;;;;10.26;100.00;101499.88;10444835;28;20124;-77
2023/05/01 19:46:44;;;;;;;26.85;19.42;;;;;;;10.15;100.00;101508.78;10460675;28;20071;-77
2023/05/01 19:51:44;;;;;;;32.78;23.60;;;;;;;10.14;100.00;101509.59;10525551;28;20570;-78
2023/05/01 19:56:48;;;;;;;33.78;26.05;;;;;;;10.18;100.00;101521.16;10514468;28;20169;-78
2023/05/01 20:01:49;;;;;;;35.67;25.98;;;;;;;10.33;100.00;101526.41;10526046;28;20044;-77
2023/05/01 20:06:50;;;;;;;35.70;27.55;;;;;;;10.42;100.00;101527.88;10505988;28;20040;-78
2023/05/01 20:11:51;;;;;;;29.88;22.25;;;;;;;10.47;100.00;101530.75;10513689;28;20123;-77
2023/05/01 20:16:51;;;;;;;27.60;21.42;;;;;;;10.48;100.00;101527.34;10504015;28;20131;-77
2023/05/01 20:21:52;;;;;;;30.00;20.90;;;;;;;10.29;100.00;101531.44;10506291;28;20052;-78
2023/05/01 20:26:54;;;;;;;26.15;18.83;;;;;;;9.98;100.00;101537.44;10511108;28;20036;-78
2023/05/01 20:31:54;;;;;;;26.45;20.05;;;;;;;9.81;100.00;101545.97;10522050;28;20043;-78
2023/05/01 20:36:55;;;;;;;30.02;17.88;;;;;;;9.75;100.00;101553.44;10521598;28;20097;-77
2023/05/01 20:41:57;;;;;;;31.38;18.15;;;;;;;9.87;100.00;101554.19;10493353;28;20559;-78
2023/05/01 20:46:58;;;;;;;31.95;20.40;;;;;;;9.92;100.00;101560.63;10521209;28;20046;-77
2023/05/01 20:51:59;;;;;;;28.83;18.05;;;;;;;9.86;100.00;101561.97;10519943;28;20574;-77
2023/05/01 20:57:01;;;;;;;28.27;19.13;;;;;;;9.89;100.00;101576.13;10522129;28;20094;-78
2023/05/01 21:02:02;;;;;;;;;;;;;;;9.94;100.00;101579.91;10501111;28;20040;-78
2023/05/01 21:07:03;;;;;;;31.77;19.17;;;;;;;9.75;100.00;101583.13;10516362;28;20347;-77
2023/05/01 21:12:05;;;;;;;21.30;17.10;;;;;;;9.42;100.00;101582.78;10498933;28;20126;-77
2023/05/01 21:17:08;;;;;;;25.90;17.88;;;;;;;9.17;100.00;101589.06;10502489;28;20119;-78
2023/05/01 21:22:16;;;;;;;31.77;21.10;;;;;;;9.14;100.00;101601.00;10525277;28;20044;-77
2023/05/01 21:27:17;;;;;;;31.30;22.15;;;;;;;9.01;100.00;101605.41;10530743;28;20454;-77
2023/05/01 21:32:17;;;;;;;32.20;24.10;;;;;;;8.99;100.00;101599.19;10532869;28;20054;-78
2023/05/01 21:37:18;;;;;;;31.50;23.02;;;;;;;8.93;100.00;101611.84;10513659;28;20063;-77
2023/05/01 21:42:18;;;;;;;38.88;24.45;;;;;;;8.86;100.00;101614.84;10530302;28;20402;-77
2023/05/01 21:47:19;;;;;;;35.63;23.88;;;;;;;8.79;100.00;101613.53;10513536;28;20119;-77
2023/05/01 21:52:19;;;;;;;43.30;28.23;;;;;;;8.62;100.00;101621.13;10530378;28;20123;-77
2023/05/01 21:57:19;;;;;;;44.70;28.85;;;;;;;8.44;100.00;101625.97;10512701;28;20071;-77
2023/05/01 22:02:20;;;;;;;42.05;29.05;;;;;;;8.35;100.00;101640.97;10513143;28;20808;-77
2023/05/01 22:07:20;;;;;;;41.22;25.38;;;;;;;8.19;100.00;101652.94;10527720;28;20064;-77
2023/05/01 22:12:21;;;;;;;44.70;28.05;;;;;;;8.13;100.00;101652.53;10530829;28;20040;-77
2023/05/01 22:17:25;;;;;;;43.72;31.48;;;;;;;8.06;100.00;101669.44;10528772;28;20379;-77
2023/05/01 22:22:25;;;;;;;43.60;31.05;;;;;;;8.01;100.00;101675.13;10509611;28;20119;-77
2023/05/01 22:27:26;;;;;;;48.20;30.30;;;;;;;8.00;100.00;101670.72;10527868;28;20445;-77
2023/05/01 22:32:27;;;;;;;51.75;33.10;;;;;;;8.01;100.00;101668.22;10528991;28;20024;-77
2023/05/01 22:37:27;;;;;;;48.70;33.28;;;;;;;7.87;100.00;101664.63;10527304;28;20110;-77
2023/05/01 22:42:28;;;;;;;54.05;33.58;;;;;;;7.71;100.00;101664.31;10528853;28;20039;-77
2023/05/01 22:47:28;;;;;;;47.55;31.67;;;;;;;7.58;100.00;101671.25;10527928;28;20504;-77
2023/05/01 22:52:28;;;;;;;60.60;37.55;;;;;;;7.40;100.00;101673.44;10504889;28;20042;-78